Meteógrafos Informações Meteorológicas em tempo real
Aeroporto Sepé Tiarajú
15-12-2019 23:56

Temperatura atual: 19 graus 66 F    Umidade relativa: 100 %
Velocidade do vento: 05 nós 9 Km/h    Direção: 280 graus W
Ajuste do altímetro ..: 1010 HPA
Visibilidade: Ótima    Tempo presente: Parcialmente Nublado

Observação
Céu nublado a 3600 Pés.
Data Hora BRTTempo°CUmidadePressãoVentoVisib.
15/12 - 23:56   Parcialmente Nublado 19° 100% 1010 Oeste/9 km/h OK
15/12 - 22:56   Céu Limpo 20° 93% 1008 Norte/16 km/h OK
15/12 - 21:56   Céu Limpo 20° 88% 1008 Norte/12 km/h OK
15/12 - 20:56   Céu Limpo 20° 88% 1008 Noroeste/14 km/h OK
15/12 - 19:56   Céu Limpo 20° 93% 1009 Norte-noroeste/16 km/h OK
15/12 - 18:56   Trovoada recente 20° 93% 1008 Noroeste/12 km/h OK
15/12 - 17:55   Chuva fraca e trovoadas 20° 100% 1008 Norte-nordeste/14 km/h 8000
15/12 - 16:56   Chuva fraca e trovoadas 21° 100% 1009 Noroeste/14 km/h 8000
15/12 - 15:56   Chuvas e trovoadas 27° 69% 1009 Oeste/21 km/h 300
15/12 - 14:56   Poucas nuvens esparsas 31° 55% 1006 Norte-noroeste/32 km/h 9999
15/12 - 13:56   Poucas nuvens esparsas 31° 58% 1007 Norte-noroeste/36 km/h OK
15/12 - 12:56   Não Disponível 31° 58% 1008 Norte-noroeste/37 km/h OK
15/12 - 11:56   Poucas nuvens esparsas 30° 58% 1009 Norte-noroeste/32 km/h OK
15/12 - 10:56   Não Disponível 28° 65% 1010 Norte-noroeste/34 km/h OK
15/12 - 09:56   Não Disponível 27° 69% 1009 Norte/27 km/h 9999
15/12 - 08:56   Céu Limpo 25° 78% 1009 Norte/23 km/h OK
15/12 - 07:56   Céu Limpo 23° 88% 1009 Norte-nordeste/21 km/h OK
15/12 - 06:56   Céu Limpo 23° 83% 1009 Norte-nordeste/18 km/h OK
15/12 - 05:56   Céu Limpo 22° 88% 1009 Norte-nordeste/16 km/h OK
15/12 - 04:56   Céu Limpo 22° 88% 1009 Norte-nordeste/10 km/h OK
15/12 - 03:56   Céu Limpo 22° 88% 1010 Norte-nordeste/16 km/h OK
15/12 - 02:56   Céu Limpo 22° 88% 1011 Nordeste/9 km/h OK
15/12 - 01:56   Céu Limpo 22° 88% 1011 Este-nordeste/9 km/h CAVO
15/12 - 00:56   Céu Limpo 22° 94% 1012 Nordeste/12 km/h OK

Termo de Uso  |   Links Úteis  |   Imprensa  |  Anuncie  |  Fale Conosco  |  Versão Celular  |   Política de Privacidade

Apolo11.com - Todos os direitos reservados - 2000 - 2019

"Existem velas que iluminam tudo, menos o próprio candelabro" - Hebbel